Terminal Aerodrome Forecast
Issued by NWS

Home | Current Version | Previous Version | Text Only | Print | Product List | Glossary On
Versions: 1 2 3 4 5 6 7 8 9 10 11 12
238
FTUS45 KRIW 271128
TAFJAC
TAF
KJAC 271128Z 2712/2812 VRB08KT P6SM VCSH SCT050 BKN090
     FM271700 21008G15KT P6SM VCTS SCT040 BKN080CB
     FM272300 24010KT P6SM VCSH SCT050 BKN080
     FM280600 VRB05KT P6SM BKN100
      AMD LTD TO CLD VIS AND WIND=

USA.gov is the U.S. government's official web portal to all federal, state and local government web resources and services.